Time;durP1;ratioP1;P1;durP2;ratioP2;P2;SDS_P1;SDS_P2;PMS_P1;PMS_P2;Temp;Humidity;BMP_temperature;BMP_pressure;BME280_temperature;BME280_humidity;BME280_pressure;Samples;Min_cycle;Max_cycle;Signal;HPM_P1;HPM_P2
2021/05/29 00:00:54;;;;;;;1.83;1.50;;;;;;;;;;10313421;28;20886;-64
2021/05/29 00:05:51;;;;;;;2.78;1.58;;;;;;;;;;10307545;28;20029;-65
2021/05/29 00:10:51;;;;;;;1.67;1.30;;;;;;;;;;10321363;28;20068;-64
2021/05/29 00:15:49;;;;;;;6.63;2.55;;;;;;;;;;10317420;28;20038;-64
2021/05/29 00:20:47;;;;;;;6.90;2.90;;;;;;;;;;10323097;28;20090;-65
2021/05/29 00:25:44;;;;;;;5.10;2.33;;;;;;;;;;10327614;28;20029;-65
2021/05/29 00:30:44;;;;;;;1.08;0.98;;;;;;;;;;10325091;28;20128;-64
2021/05/29 00:35:42;;;;;;;5.20;2.10;;;;;;;;;;10309846;28;20049;-64
2021/05/29 00:40:40;;;;;;;3.60;2.10;;;;;;;;;;10321828;28;20040;-66
2021/05/29 00:45:37;;;;;;;2.37;1.70;;;;;;;;;;10312481;28;20409;-64
2021/05/29 00:50:47;;;;;;;1.57;1.03;;;;;;;;;;10327180;28;20032;-63
2021/05/29 00:55:45;;;;;;;1.00;0.82;;;;;;;;;;10329952;28;20045;-63
2021/05/29 01:00:42;;;;;;;5.53;2.57;;;;;;;;;;10330978;28;20040;-63
2021/05/29 01:05:40;;;;;;;4.17;2.00;;;;;;;;;;10330459;28;20028;-63
2021/05/29 01:10:37;;;;;;;2.90;1.73;;;;;;;;;;10325039;28;20032;-64
2021/05/29 01:15:41;;;;;;;3.20;1.23;;;;;;;;;;10330637;28;20464;-64
2021/05/29 01:20:38;;;;;;;2.40;1.17;;;;;;;;;;10329087;28;20037;-63
2021/05/29 01:25:41;;;;;;;13.77;1.90;;;;;;;;;;10324479;28;20421;-64
2021/05/29 01:30:41;;;;;;;2.72;1.20;;;;;;;;;;10327440;28;20041;-63
2021/05/29 01:35:38;;;;;;;1.90;1.40;;;;;;;;;;10319959;28;20349;-63
2021/05/29 01:40:36;;;;;;;3.10;1.37;;;;;;;;;;10323539;28;20065;-63
2021/05/29 01:45:35;;;;;;;2.50;1.48;;;;;;;;;;10311003;28;20406;-64
2021/05/29 01:50:33;;;;;;;0.63;0.60;;;;;;;;;;10321517;28;20055;-65
2021/05/29 01:55:32;;;;;;;0.77;0.70;;;;;;;;;;10326479;28;20033;-65
2021/05/29 02:00:30;;;;;;;5.90;2.10;;;;;;;;;;10345584;28;20402;-66
2021/05/29 02:05:29;;;;;;;1.23;0.80;;;;;;;;;;10338509;28;20055;-65
2021/05/29 02:10:27;;;;;;;2.97;1.52;;;;;;;;;;10338423;28;20119;-65
2021/05/29 02:15:25;;;;;;;;;;;;;;;;;;10349705;28;20042;-65
2021/05/29 02:20:37;;;;;;;4.47;2.75;;;;;;;;;;10330717;28;19923;-65
2021/05/29 02:25:35;;;;;;;1.55;0.98;;;;;;;;;;10345346;28;20394;-65
2021/05/29 02:30:33;;;;;;;5.60;3.10;;;;;;;;;;10334613;28;20041;-65
2021/05/29 02:35:31;;;;;;;4.63;2.42;;;;;;;;;;10338047;28;20067;-66
2021/05/29 02:40:28;;;;;;;2.07;1.57;;;;;;;;;;10342759;28;20127;-64
2021/05/29 02:45:26;;;;;;;10.53;2.23;;;;;;;;;;10335055;28;20057;-66
2021/05/29 02:50:24;;;;;;;1.38;0.70;;;;;;;;;;10353326;28;20387;-65
2021/05/29 02:55:22;;;;;;;1.27;1.17;;;;;;;;;;10350716;28;20044;-66
2021/05/29 03:00:19;;;;;;;;;;;;;;;;;;10348174;28;20060;-66
2021/05/29 03:05:17;;;;;;;1.75;1.08;;;;;;;;;;10347382;28;19916;-67
2021/05/29 03:10:15;;;;;;;2.23;1.40;;;;;;;;;;10360109;28;20025;-67
2021/05/29 03:15:15;;;;;;;2.53;1.57;;;;;;;;;;10347858;28;20025;-68
2021/05/29 03:20:14;;;;;;;1.80;1.48;;;;;;;;;;10359494;28;20037;-67
2021/05/29 03:25:12;;;;;;;8.32;2.85;;;;;;;;;;10348426;28;20029;-67
2021/05/29 03:30:11;;;;;;;5.13;2.30;;;;;;;;;;10347388;28;20025;-65
2021/05/29 03:35:10;;;;;;;1.80;1.35;;;;;;;;;;10347034;28;20394;-66
2021/05/29 03:40:07;;;;;;;2.22;1.95;;;;;;;;;;10347629;28;20115;-66
2021/05/29 03:45:06;;;;;;;2.13;1.70;;;;;;;;;;10346948;28;20029;-66
2021/05/29 03:50:03;;;;;;;;;;;;;;;;;;10345430;28;20402;-65
2021/05/29 03:55:01;;;;;;;2.28;0.93;;;;;;;;;;10348034;28;19909;-66
2021/05/29 03:59:59;;;;;;;3.67;1.42;;;;;;;;;;10346894;28;20021;-67
2021/05/29 04:04:56;;;;;;;4.20;2.33;;;;;;;;;;10347578;28;20029;-67
2021/05/29 04:09:54;;;;;;;3.03;0.90;;;;;;;;;;10347105;28;20025;-67
2021/05/29 04:14:51;;;;;;;1.10;0.97;;;;;;;;;;10346021;28;20098;-65
2021/05/29 04:19:48;;;;;;;3.40;1.27;;;;;;;;;;10340092;28;20026;-63
2021/05/29 04:24:46;;;;;;;1.57;1.43;;;;;;;;;;10343161;28;20024;-64
2021/05/29 04:29:44;;;;;;;1.57;0.90;;;;;;;;;;10345430;28;20029;-64
2021/05/29 04:34:41;;;;;;;2.93;1.30;;;;;;;;;;10345702;28;20025;-66
2021/05/29 04:39:38;;;;;;;1.77;1.53;;;;;;;;;;10344588;28;20029;-64
2021/05/29 04:44:36;;;;;;;0.67;0.67;;;;;;;;;;10345870;28;20111;-65
2021/05/29 04:49:33;;;;;;;0.50;0.50;;;;;;;;;;10344925;28;20035;-65
2021/05/29 04:54:31;;;;;;;0.87;0.60;;;;;;;;;;10344853;28;20099;-65
2021/05/29 04:59:28;;;;;;;2.17;1.00;;;;;;;;;;10344779;28;20037;-65
2021/05/29 05:04:26;;;;;;;2.83;1.30;;;;;;;;;;10342492;28;20087;-65
2021/05/29 05:09:23;;;;;;;2.30;1.43;;;;;;;;;;10339811;28;20064;-65
2021/05/29 05:14:21;;;;;;;5.50;2.30;;;;;;;;;;10342377;28;20041;-64
2021/05/29 05:19:18;;;;;;;1.70;1.00;;;;;;;;;;10344294;28;20043;-63
2021/05/29 05:24:15;;;;;;;1.63;1.23;;;;;;;;;;10342720;28;20124;-64
2021/05/29 05:29:13;;;;;;;2.03;1.37;;;;;;;;;;10344264;28;20025;-64
2021/05/29 05:34:11;;;;;;;1.37;1.27;;;;;;;;;;10311827;28;20037;-66
2021/05/29 05:39:09;;;;;;;4.73;1.60;;;;;;;;;;10321200;28;20037;-65
2021/05/29 05:44:07;;;;;;;3.17;2.03;;;;;;;;;;10334970;28;20037;-66
2021/05/29 05:49:04;;;;;;;5.28;2.30;;;;;;;;;;10336367;28;20040;-66
2021/05/29 05:54:02;;;;;;;4.13;1.23;;;;;;;;;;10366358;28;20033;-65
2021/05/29 05:59:00;;;;;;;1.73;1.33;;;;;;;;;;10323268;28;20044;-66
2021/05/29 06:03:57;;;;;;;1.63;1.13;;;;;;;;;;10315425;28;20513;-64
2021/05/29 06:08:55;;;;;;;2.67;1.23;;;;;;;;;;10313355;28;20069;-65
2021/05/29 06:24:08;;;;;;;3.40;1.42;;;;;;;;;;10310871;28;20564;-64
2021/05/29 06:29:07;;;;;;;3.55;1.40;;;;;;;;;;10336537;28;20030;-64
2021/05/29 06:34:04;;;;;;;2.93;1.57;;;;;;;;;;10315553;28;20044;-64
2021/05/29 06:39:03;;;;;;;2.63;1.67;;;;;;;;;;10316877;28;20053;-63
2021/05/29 06:44:01;;;;;;;4.32;1.58;;;;;;;;;;10323334;28;20048;-64
2021/05/29 06:49:00;;;;;;;2.10;1.20;;;;;;;;;;10326604;28;20033;-64
2021/05/29 06:54:01;;;;;;;3.13;1.67;;;;;;;;;;10297227;28;20109;-64
2021/05/29 06:58:59;;;;;;;4.03;1.90;;;;;;;;;;10314463;28;20627;-64
2021/05/29 07:03:56;;;;;;;3.47;1.83;;;;;;;;;;10312274;28;20029;-65
2021/05/29 07:08:56;;;;;;;5.43;2.20;;;;;;;;;;10319950;28;20037;-65
2021/05/29 07:13:54;;;;;;;2.95;1.67;;;;;;;;;;10303144;28;20083;-64
2021/05/29 07:18:51;;;;;;;2.23;1.60;;;;;;;;;;10331946;28;20072;-64
2021/05/29 07:23:48;;;;;;;3.30;1.60;;;;;;;;;;10327871;28;20123;-65
2021/05/29 07:28:46;;;;;;;3.77;1.53;;;;;;;;;;10327770;28;20038;-65
2021/05/29 07:33:44;;;;;;;2.10;1.53;;;;;;;;;;10322041;28;20041;-65
2021/05/29 07:38:41;;;;;;;7.60;2.00;;;;;;;;;;10318232;28;20037;-65
2021/05/29 07:43:39;;;;;;;2.83;1.50;;;;;;;;;;10313042;28;20455;-65
2021/05/29 07:48:37;;;;;;;2.07;1.40;;;;;;;;;;10322217;28;20025;-64
2021/05/29 07:53:36;;;;;;;1.35;1.23;;;;;;;;;;10336502;28;20033;-65
2021/05/29 07:58:34;;;;;;;2.22;1.10;;;;;;;;;;10331910;28;20044;-64
2021/05/29 08:03:31;;;;;;;3.65;2.00;;;;;;;;;;10331881;28;20037;-64
2021/05/29 08:08:29;;;;;;;1.70;1.50;;;;;;;;;;10337335;28;20041;-64
2021/05/29 08:13:27;;;;;;;3.17;1.87;;;;;;;;;;10334674;28;20048;-64
2021/05/29 08:18:25;;;;;;;;;;;;;;;;;;10303435;28;20187;-65
2021/05/29 08:23:22;;;;;;;1.25;0.90;;;;;;;;;;10321972;28;20057;-64
2021/05/29 08:28:19;;;;;;;3.37;1.43;;;;;;;;;;10329423;28;20055;-63
2021/05/29 08:33:17;;;;;;;3.03;1.43;;;;;;;;;;10327049;28;20042;-63
2021/05/29 08:38:15;;;;;;;4.80;1.57;;;;;;;;;;10328600;28;20045;-65
2021/05/29 08:43:12;;;;;;;6.63;1.40;;;;;;;;;;10312528;28;20132;-65
2021/05/29 08:48:10;;;;;;;2.50;1.73;;;;;;;;;;10317066;28;20104;-65
2021/05/29 08:53:08;;;;;;;2.92;1.75;;;;;;;;;;10327134;28;20047;-65
2021/05/29 08:58:05;;;;;;;2.10;1.70;;;;;;;;;;10336094;28;20041;-62
2021/05/29 09:03:07;;;;;;;3.53;1.60;;;;;;;;;;10336940;28;20069;-65
2021/05/29 09:08:05;;;;;;;3.55;1.65;;;;;;;;;;10312423;28;20083;-66
2021/05/29 09:13:10;;;;;;;2.20;1.45;;;;;;;;;;10299358;28;20046;-66
2021/05/29 09:18:08;;;;;;;4.93;1.23;;;;;;;;;;10313947;28;20120;-66
2021/05/29 09:23:07;;;;;;;1.83;1.13;;;;;;;;;;10332397;28;20037;-65
2021/05/29 09:28:05;;;;;;;4.25;1.15;;;;;;;;;;10318620;28;20084;-65
2021/05/29 09:33:14;;;;;;;2.42;0.85;;;;;;;;;;10340645;28;20032;-66
2021/05/29 09:38:14;;;;;;;1.08;0.73;;;;;;;;;;10323845;28;20037;-64
2021/05/29 09:43:12;;;;;;;0.82;0.82;;;;;;;;;;10314302;28;20033;-63
2021/05/29 09:48:10;;;;;;;2.43;0.60;;;;;;;;;;10351228;28;20037;-66
2021/05/29 09:53:25;;;;;;;4.95;2.03;;;;;;;;;;10332071;28;20120;-66
2021/05/29 09:58:42;;;;;;;3.05;1.60;;;;;;;;;;10330991;28;20101;-63
2021/05/29 10:03:46;;;;;;;1.40;1.30;;;;;;;;;;10340083;28;20106;-64
2021/05/29 10:08:43;;;;;;;1.85;1.10;;;;;;;;;;10339277;28;20075;-65
2021/05/29 10:13:41;;;;;;;0.53;0.53;;;;;;;;;;10336490;28;20128;-63
2021/05/29 10:18:39;;;;;;;1.00;0.90;;;;;;;;;;10366584;28;20033;-64
2021/05/29 10:23:36;;;;;;;5.78;1.48;;;;;;;;;;10322813;28;20041;-65
2021/05/29 10:28:35;;;;;;;1.43;0.53;;;;;;;;;;10318594;28;20029;-63
2021/05/29 10:33:39;;;;;;;1.60;1.10;;;;;;;;;;10319409;28;20033;-64
2021/05/29 10:38:44;;;;;;;2.47;1.75;;;;;;;;;;10336245;28;20048;-64
2021/05/29 10:43:41;;;;;;;3.05;0.90;;;;;;;;;;10315516;28;20045;-64
2021/05/29 10:48:46;;;;;;;2.70;1.33;;;;;;;;;;10332983;28;20083;-65
2021/05/29 10:53:56;;;;;;;0.82;0.60;;;;;;;;;;10335606;28;20029;-66
2021/05/29 10:58:56;;;;;;;0.65;0.55;;;;;;;;;;10345523;28;20033;-66
2021/05/29 11:04:15;;;;;;;1.27;1.17;;;;;;;;;;10346335;28;20029;-65
2021/05/29 11:09:14;;;;;;;;;;;;;;;;;;10308039;28;20030;-66
2021/05/29 11:14:11;;;;;;;0.88;0.77;;;;;;;;;;10331630;28;19923;-65
2021/05/29 11:19:11;;;;;;;1.07;0.90;;;;;;;;;;10326285;28;20520;-64
2021/05/29 11:24:27;;;;;;;1.35;1.08;;;;;;;;;;10347286;28;20028;-65
2021/05/29 11:29:25;;;;;;;1.25;0.63;;;;;;;;;;10329810;28;20132;-64
2021/05/29 11:34:22;;;;;;;1.47;1.00;;;;;;;;;;10338318;28;20586;-66
2021/05/29 11:39:21;;;;;;;1.03;1.00;;;;;;;;;;10338614;28;20106;-66
2021/05/29 11:44:20;;;;;;;4.72;1.42;;;;;;;;;;10334878;28;20044;-66
2021/05/29 11:49:17;;;;;;;4.05;1.65;;;;;;;;;;10323303;28;20483;-66
2021/05/29 11:54:17;;;;;;;1.07;0.80;;;;;;;;;;10324548;28;20458;-65
2021/05/29 11:59:18;;;;;;;1.75;1.17;;;;;;;;;;10334712;28;20044;-65
2021/05/29 12:04:23;;;;;;;1.42;0.95;;;;;;;;;;10325948;28;20079;-66
2021/05/29 12:09:24;;;;;;;0.40;0.40;;;;;;;;;;10323227;28;20042;-65
2021/05/29 12:14:21;;;;;;;0.60;0.47;;;;;;;;;;10303400;28;20704;-64
2021/05/29 12:19:28;;;;;;;0.77;0.60;;;;;;;;;;10298533;28;20086;-64
2021/05/29 12:24:27;;;;;;;0.77;0.77;;;;;;;;;;10294182;28;20033;-64
2021/05/29 12:29:24;;;;;;;2.50;1.50;;;;;;;;;;10313423;28;20059;-64
2021/05/29 12:34:23;;;;;;;1.25;1.15;;;;;;;;;;10334516;28;20128;-63
2021/05/29 12:39:20;;;;;;;;;;;;;;;;;;10326187;28;20037;-63
2021/05/29 12:44:18;;;;;;;1.85;0.70;;;;;;;;;;10330248;28;19916;-63
2021/05/29 12:49:16;;;;;;;2.47;1.48;;;;;;;;;;10331471;28;20159;-63
2021/05/29 12:54:13;;;;;;;;;;;;;;;;;;10323157;28;20036;-63
2021/05/29 12:59:11;;;;;;;1.30;1.17;;;;;;;;;;10320132;28;19921;-63
2021/05/29 13:09:27;;;;;;;3.28;1.70;;;;;;;;;;10315571;28;20048;-64
2021/05/29 13:14:29;;;;;;;1.20;0.93;;;;;;;;;;10306833;28;20043;-64
2021/05/29 13:19:27;;;;;;;1.90;1.10;;;;;;;;;;10306224;28;20045;-64
2021/05/29 13:24:40;;;;;;;0.95;0.82;;;;;;;;;;10305118;28;20030;-64
2021/05/29 13:29:37;;;;;;;1.50;1.35;;;;;;;;;;10330965;28;20028;-63
2021/05/29 13:34:35;;;;;;;2.47;1.15;;;;;;;;;;10314903;28;20061;-64
2021/05/29 13:39:32;;;;;;;0.73;0.73;;;;;;;;;;10321562;28;21155;-64
2021/05/29 13:44:30;;;;;;;3.07;2.50;;;;;;;;;;10308270;28;20041;-64
2021/05/29 13:49:27;;;;;;;3.43;1.77;;;;;;;;;;10319524;28;20072;-63
2021/05/29 13:54:25;;;;;;;2.00;0.97;;;;;;;;;;10315396;28;20044;-65
2021/05/29 13:59:22;;;;;;;30.50;6.97;;;;;;;;;;10327700;28;20468;-64
2021/05/29 14:04:23;;;;;;;30.38;12.48;;;;;;;;;;10333128;28;20333;-64
2021/05/29 14:09:20;;;;;;;43.88;18.20;;;;;;;;;;10314692;28;20094;-65
2021/05/29 14:14:19;;;;;;;38.10;15.10;;;;;;;;;;10334296;28;20093;-64
2021/05/29 14:19:16;;;;;;;33.65;13.88;;;;;;;;;;10330995;28;20037;-63
2021/05/29 14:24:14;;;;;;;29.87;12.77;;;;;;;;;;10329287;28;20041;-63
2021/05/29 14:29:11;;;;;;;26.23;9.90;;;;;;;;;;10327239;28;20033;-64
2021/05/29 14:34:09;;;;;;;23.25;9.30;;;;;;;;;;10342164;28;20402;-62
2021/05/29 14:39:07;;;;;;;;;;;;;;;;;;10333789;28;20128;-63
2021/05/29 14:44:04;;;;;;;19.17;8.45;;;;;;;;;;10322390;28;19964;-63
2021/05/29 14:49:01;;;;;;;;;;;;;;;;;;10316638;28;20032;-65
2021/05/29 14:54:01;;;;;;;14.32;6.22;;;;;;;;;;10336072;28;20105;-63
2021/05/29 14:58:58;;;;;;;13.18;5.43;;;;;;;;;;10326795;28;20033;-65
2021/05/29 15:03:57;;;;;;;;;;;;;;;;;;10320465;28;20021;-66
2021/05/29 15:08:54;;;;;;;9.10;4.23;;;;;;;;;;10318614;28;20188;-67
2021/05/29 15:13:51;;;;;;;;;;;;;;;;;;10300925;28;20475;-67
2021/05/29 15:18:49;;;;;;;7.97;2.13;;;;;;;;;;10338538;28;20362;-66
2021/05/29 15:23:52;;;;;;;;;;;;;;;;;;10317836;28;20033;-65
2021/05/29 15:28:49;;;;;;;5.32;2.40;;;;;;;;;;10327278;28;19920;-65
2021/05/29 15:33:47;;;;;;;6.93;2.50;;;;;;;;;;10319702;28;20044;-65
2021/05/29 15:38:44;;;;;;;5.50;2.30;;;;;;;;;;10323612;28;20083;-64
2021/05/29 15:43:41;;;;;;;;;;;;;;;;;;10320725;28;20043;-64
2021/05/29 15:48:39;;;;;;;2.22;1.08;;;;;;;;;;10322424;28;20019;-65
2021/05/29 15:53:40;;;;;;;4.22;1.55;;;;;;;;;;10324005;28;20509;-62
2021/05/29 15:58:38;;;;;;;1.70;1.20;;;;;;;;;;10327323;28;20028;-63
2021/05/29 16:03:36;;;;;;;2.83;1.58;;;;;;;;;;10311589;28;20509;-63
2021/05/29 16:08:33;;;;;;;5.87;1.77;;;;;;;;;;10324186;28;20029;-63
2021/05/29 16:13:31;;;;;;;4.27;1.33;;;;;;;;;;10314648;28;20043;-64
2021/05/29 16:18:28;;;;;;;6.37;1.53;;;;;;;;;;10316844;28;20045;-64
2021/05/29 16:23:26;;;;;;;7.37;1.93;;;;;;;;;;10316053;28;20303;-64
2021/05/29 16:28:23;;;;;;;3.67;2.00;;;;;;;;;;10321581;28;20306;-64
2021/05/29 16:33:21;;;;;;;2.30;1.00;;;;;;;;;;10329648;28;20046;-64
2021/05/29 16:38:21;;;;;;;2.87;0.90;;;;;;;;;;10325768;28;20120;-64
2021/05/29 16:43:18;;;;;;;5.63;1.85;;;;;;;;;;10312760;28;20499;-64
2021/05/29 16:48:16;;;;;;;4.20;1.87;;;;;;;;;;10315497;28;20064;-64
2021/05/29 16:53:13;;;;;;;3.83;1.07;;;;;;;;;;10311221;28;20034;-65
2021/05/29 16:58:10;;;;;;;3.53;1.87;;;;;;;;;;10313510;28;20033;-64
2021/05/29 17:03:08;;;;;;;2.17;1.10;;;;;;;;;;10311243;28;20041;-65
2021/05/29 17:08:05;;;;;;;1.80;1.20;;;;;;;;;;10315921;28;20112;-64
2021/05/29 17:13:03;;;;;;;1.30;0.93;;;;;;;;;;10330821;28;20119;-64
2021/05/29 17:18:00;;;;;;;3.67;1.90;;;;;;;;;;10317449;28;20033;-64
2021/05/29 17:22:58;;;;;;;1.53;0.93;;;;;;;;;;10327156;28;20030;-64
2021/05/29 17:27:55;;;;;;;5.27;1.90;;;;;;;;;;10330440;28;20159;-64
2021/05/29 17:32:53;;;;;;;6.80;3.00;;;;;;;;;;10323280;28;20053;-64
2021/05/29 17:37:50;;;;;;;5.60;2.50;;;;;;;;;;10329797;28;20108;-64
2021/05/29 17:42:47;;;;;;;1.23;0.90;;;;;;;;;;10316724;28;20033;-65
2021/05/29 17:47:45;;;;;;;1.20;1.03;;;;;;;;;;10332861;28;20033;-64
2021/05/29 17:52:43;;;;;;;1.88;1.75;;;;;;;;;;10330361;28;20452;-65
2021/05/29 18:02:47;;;;;;;1.90;1.23;;;;;;;;;;10332365;28;20025;-64
2021/05/29 18:07:44;;;;;;;2.53;1.50;;;;;;;;;;10317017;28;20029;-64
2021/05/29 18:12:42;;;;;;;2.03;1.50;;;;;;;;;;10336822;28;20500;-64
2021/05/29 18:17:39;;;;;;;4.00;1.70;;;;;;;;;;10332502;28;20545;-64
2021/05/29 18:22:37;;;;;;;1.37;1.27;;;;;;;;;;10327528;28;20056;-63
2021/05/29 18:27:35;;;;;;;1.93;1.73;;;;;;;;;;10340105;28;20560;-64
2021/05/29 18:32:32;;;;;;;3.58;2.25;;;;;;;;;;10323649;28;20040;-63
2021/05/29 18:37:39;;;;;;;5.37;1.90;;;;;;;;;;10329855;28;20032;-64
2021/05/29 18:42:36;;;;;;;2.50;1.20;;;;;;;;;;10335222;28;20067;-64
2021/05/29 18:47:34;;;;;;;1.67;1.20;;;;;;;;;;10333086;28;20043;-64
2021/05/29 18:52:32;;;;;;;2.17;1.00;;;;;;;;;;10342710;28;20043;-64
2021/05/29 18:57:29;;;;;;;1.57;1.10;;;;;;;;;;10322087;28;20442;-65
2021/05/29 19:07:56;;;;;;;7.13;1.87;;;;;;;;;;10313047;28;20031;-63
2021/05/29 19:12:53;;;;;;;3.10;1.83;;;;;;;;;;10314361;28;20036;-66
2021/05/29 19:17:51;;;;;;;2.00;1.03;;;;;;;;;;10310419;28;20033;-64
2021/05/29 19:22:53;;;;;;;2.63;1.60;;;;;;;;;;10320774;28;20637;-65
2021/05/29 19:27:58;;;;;;;3.17;1.40;;;;;;;;;;10311702;28;20033;-64
2021/05/29 19:43:30;;;;;;;5.47;2.42;;;;;;;;;;10303194;28;20482;-63
2021/05/29 20:30:43;;;;;;;2.90;2.25;;;;;;;;;;10306669;28;20029;-63
2021/05/29 20:35:41;;;;;;;2.90;2.10;;;;;;;;;;10301087;28;20033;-64
2021/05/29 20:40:38;;;;;;;1.30;0.98;;;;;;;;;;10312800;28;20151;-66
2021/05/29 20:45:44;;;;;;;7.47;4.80;;;;;;;;;;10326034;28;20128;-62
2021/05/29 20:50:54;;;;;;;12.02;5.38;;;;;;;;;;10318274;28;20411;-65
2021/05/29 20:55:52;;;;;;;9.73;5.28;;;;;;;;;;10306873;28;20033;-66
2021/05/29 21:00:50;;;;;;;19.15;6.18;;;;;;;;;;10321795;28;20033;-64
2021/05/29 21:05:48;;;;;;;10.88;5.55;;;;;;;;;;10318435;28;20026;-64
2021/05/29 21:10:46;;;;;;;14.32;6.70;;;;;;;;;;10320477;28;20188;-66
2021/05/29 21:15:47;;;;;;;13.97;6.63;;;;;;;;;;10325739;28;20041;-63
2021/05/29 21:21:03;;;;;;;13.70;6.50;;;;;;;;;;10322347;28;20025;-63
2021/05/29 21:26:00;;;;;;;9.23;6.78;;;;;;;;;;10325997;28;20029;-65
2021/05/29 21:30:57;;;;;;;14.23;6.53;;;;;;;;;;10319611;28;20785;-63
2021/05/29 21:35:55;;;;;;;18.53;6.90;;;;;;;;;;10316775;28;20086;-63
2021/05/29 21:40:52;;;;;;;13.17;7.33;;;;;;;;;;10331059;28;20025;-64
2021/05/29 21:51:05;;;;;;;12.57;6.75;;;;;;;;;;10326978;28;20033;-64
2021/05/29 21:56:03;;;;;;;21.53;9.17;;;;;;;;;;10335868;28;20447;-64
2021/05/29 22:01:15;;;;;;;19.27;8.10;;;;;;;;;;10334227;28;20095;-61
2021/05/29 22:06:12;;;;;;;13.63;7.20;;;;;;;;;;10324424;28;20107;-63
2021/05/29 22:31:46;;;;;;;14.77;7.88;;;;;;;;;;10331388;28;20048;-64
2021/05/29 22:36:43;;;;;;;13.30;7.10;;;;;;;;;;10343462;28;20032;-64
2021/05/29 22:41:42;;;;;;;12.80;7.43;;;;;;;;;;10334644;28;20131;-63
2021/05/29 22:46:40;;;;;;;16.65;7.65;;;;;;;;;;10314168;28;20037;-64
2021/05/29 22:51:38;;;;;;;14.57;7.10;;;;;;;;;;10328745;28;20414;-64
2021/05/29 22:56:36;;;;;;;16.67;8.25;;;;;;;;;;10325559;28;20043;-64
2021/05/29 23:01:33;;;;;;;12.88;7.10;;;;;;;;;;10337580;28;20029;-65
2021/05/29 23:06:31;;;;;;;19.20;8.00;;;;;;;;;;10324862;28;20543;-65
2021/05/29 23:11:28;;;;;;;16.77;7.33;;;;;;;;;;10330131;28;20563;-65
2021/05/29 23:16:26;;;;;;;16.87;7.03;;;;;;;;;;10334495;28;20124;-65
2021/05/29 23:21:23;;;;;;;13.93;7.17;;;;;;;;;;10318285;28;20041;-67
2021/05/29 23:26:21;;;;;;;13.07;6.63;;;;;;;;;;10338859;28;20098;-67
2021/05/29 23:31:18;;;;;;;13.00;6.63;;;;;;;;;;10329799;28;20041;-67
2021/05/29 23:36:16;;;;;;;18.97;7.13;;;;;;;;;;10324165;28;20042;-65
2021/05/29 23:41:13;;;;;;;17.00;7.28;;;;;;;;;;10326728;28;20072;-64
2021/05/29 23:46:11;;;;;;;12.67;6.60;;;;;;;;;;10336292;28;20037;-64
2021/05/29 23:51:08;;;;;;;20.70;6.67;;;;;;;;;;10334102;28;20040;-64
2021/05/29 23:56:07;;;;;;;13.83;6.50;;;;;;;;;;10347444;28;20481;-63
